sensor_id;sensor_type;location;lat;lon;timestamp;P1;P2;P0
50956;PMS5003;55361;50.876;20.634;2024-01-15T00:00:09;34;27;18
50956;PMS5003;55361;50.876;20.634;2024-01-15T00:10:13;28;26;15
50956;PMS5003;55361;50.876;20.634;2024-01-15T00:20:02;28;26;15
50956;PMS5003;55361;50.876;20.634;2024-01-15T00:30:15;28;26;15
50956;PMS5003;55361;50.876;20.634;2024-01-15T00:40:19;25;21;13
50956;PMS5003;55361;50.876;20.634;2024-01-15T00:50:17;25;21;13
50956;PMS5003;55361;50.876;20.634;2024-01-15T01:00:07;25;21;13
50956;PMS5003;55361;50.876;20.634;2024-01-15T01:10:05;26;21;13
50956;PMS5003;55361;50.876;20.634;2024-01-15T01:20:19;26;21;13
50956;PMS5003;55361;50.876;20.634;2024-01-15T01:30:05;26;21;13
50956;PMS5003;55361;50.876;20.634;2024-01-15T01:40:10;26;20;14
50956;PMS5003;55361;50.876;20.634;2024-01-15T01:50:04;26;20;14
50956;PMS5003;55361;50.876;20.634;2024-01-15T02:00:19;26;20;14
50956;PMS5003;55361;50.876;20.634;2024-01-15T02:10:11;20;19;12
50956;PMS5003;55361;50.876;20.634;2024-01-15T02:20:08;20;19;12
50956;PMS5003;55361;50.876;20.634;2024-01-15T02:30:19;20;19;12
50956;PMS5003;55361;50.876;20.634;2024-01-15T02:40:12;18;15;10
50956;PMS5003;55361;50.876;20.634;2024-01-15T02:50:11;18;15;10
50956;PMS5003;55361;50.876;20.634;2024-01-15T03:00:12;18;15;10
50956;PMS5003;55361;50.876;20.634;2024-01-15T03:10:14;17;15;10
50956;PMS5003;55361;50.876;20.634;2024-01-15T03:20:20;17;15;10
50956;PMS5003;55361;50.876;20.634;2024-01-15T03:30:26;17;15;10
50956;PMS5003;55361;50.876;20.634;2024-01-15T03:40:14;17;12;8
50956;PMS5003;55361;50.876;20.634;2024-01-15T03:50:15;17;12;8
50956;PMS5003;55361;50.876;20.634;2024-01-15T04:00:10;17;12;8
50956;PMS5003;55361;50.876;20.634;2024-01-15T04:10:06;15;15;8
50956;PMS5003;55361;50.876;20.634;2024-01-15T04:20:14;15;15;8
50956;PMS5003;55361;50.876;20.634;2024-01-15T04:30:12;15;15;8
50956;PMS5003;55361;50.876;20.634;2024-01-15T04:40:12;10;10;7
50956;PMS5003;55361;50.876;20.634;2024-01-15T04:50:13;10;10;7
50956;PMS5003;55361;50.876;20.634;2024-01-15T05:00:18;10;10;7
50956;PMS5003;55361;50.876;20.634;2024-01-15T05:10:19;12;11;7
50956;PMS5003;55361;50.876;20.634;2024-01-15T05:20:08;12;11;7
50956;PMS5003;55361;50.876;20.634;2024-01-15T05:40:18;8;8;6
50956;PMS5003;55361;50.876;20.634;2024-01-15T05:50:08;8;8;6
50956;PMS5003;55361;50.876;20.634;2024-01-15T06:00:06;8;8;6
50956;PMS5003;55361;50.876;20.634;2024-01-15T06:10:14;11;10;7
50956;PMS5003;55361;50.876;20.634;2024-01-15T06:20:10;11;10;7
50956;PMS5003;55361;50.876;20.634;2024-01-15T06:30:08;11;10;7
50956;PMS5003;55361;50.876;20.634;2024-01-15T06:40:11;12;11;7
50956;PMS5003;55361;50.876;20.634;2024-01-15T06:50:09;12;11;7
50956;PMS5003;55361;50.876;20.634;2024-01-15T07:00:02;12;11;7
50956;PMS5003;55361;50.876;20.634;2024-01-15T07:10:03;16;15;11
50956;PMS5003;55361;50.876;20.634;2024-01-15T07:20:09;16;15;11
50956;PMS5003;55361;50.876;20.634;2024-01-15T07:30:18;16;15;11
50956;PMS5003;55361;50.876;20.634;2024-01-15T07:50:11;12;11;9
50956;PMS5003;55361;50.876;20.634;2024-01-15T08:00:14;12;11;9
50956;PMS5003;55361;50.876;20.634;2024-01-15T08:10:11;19;13;8
50956;PMS5003;55361;50.876;20.634;2024-01-15T08:20:18;19;13;8
50956;PMS5003;55361;50.876;20.634;2024-01-15T08:30:08;19;13;8
50956;PMS5003;55361;50.876;20.634;2024-01-15T08:40:08;16;13;8
50956;PMS5003;55361;50.876;20.634;2024-01-15T08:50:18;16;13;8
50956;PMS5003;55361;50.876;20.634;2024-01-15T09:00:15;16;13;8
50956;PMS5003;55361;50.876;20.634;2024-01-15T09:10:05;18;13;11
50956;PMS5003;55361;50.876;20.634;2024-01-15T09:20:17;18;13;11
50956;PMS5003;55361;50.876;20.634;2024-01-15T09:30:09;18;13;11
50956;PMS5003;55361;50.876;20.634;2024-01-15T09:40:39;20;16;10
50956;PMS5003;55361;50.876;20.634;2024-01-15T09:50:15;20;16;10
50956;PMS5003;55361;50.876;20.634;2024-01-15T10:00:07;20;16;10
50956;PMS5003;55361;50.876;20.634;2024-01-15T10:20:19;14;13;9
50956;PMS5003;55361;50.876;20.634;2024-01-15T10:30:19;14;13;9
50956;PMS5003;55361;50.876;20.634;2024-01-15T10:50:04;20;17;12
50956;PMS5003;55361;50.876;20.634;2024-01-15T11:00:17;20;17;12
50956;PMS5003;55361;50.876;20.634;2024-01-15T11:10:57;19;19;13
50956;PMS5003;55361;50.876;20.634;2024-01-15T11:20:08;19;19;13
50956;PMS5003;55361;50.876;20.634;2024-01-15T11:30:14;19;19;13
50956;PMS5003;55361;50.876;20.634;2024-01-15T11:40:41;16;14;12
50956;PMS5003;55361;50.876;20.634;2024-01-15T11:50:09;16;14;12
50956;PMS5003;55361;50.876;20.634;2024-01-15T12:00:16;16;14;12
50956;PMS5003;55361;50.876;20.634;2024-01-15T12:10:09;19;16;12
50956;PMS5003;55361;50.876;20.634;2024-01-15T12:20:04;19;16;12
50956;PMS5003;55361;50.876;20.634;2024-01-15T12:30:15;19;16;12
50956;PMS5003;55361;50.876;20.634;2024-01-15T12:50:16;14;13;11
50956;PMS5003;55361;50.876;20.634;2024-01-15T13:00:07;14;13;11
50956;PMS5003;55361;50.876;20.634;2024-01-15T13:10:04;19;17;12
50956;PMS5003;55361;50.876;20.634;2024-01-15T13:20:15;19;17;12
50956;PMS5003;55361;50.876;20.634;2024-01-15T13:30:14;19;17;12
50956;PMS5003;55361;50.876;20.634;2024-01-15T13:40:08;35;31;21
50956;PMS5003;55361;50.876;20.634;2024-01-15T13:50:17;35;31;21
50956;PMS5003;55361;50.876;20.634;2024-01-15T14:00:20;35;31;21
50956;PMS5003;55361;50.876;20.634;2024-01-15T14:10:04;32;26;16
50956;PMS5003;55361;50.876;20.634;2024-01-15T14:20:18;32;26;16
50956;PMS5003;55361;50.876;20.634;2024-01-15T14:30:18;32;26;16
50956;PMS5003;55361;50.876;20.634;2024-01-15T14:40:02;23;21;14
50956;PMS5003;55361;50.876;20.634;2024-01-15T14:50:08;23;21;14
50956;PMS5003;55361;50.876;20.634;2024-01-15T15:00:23;23;21;14
50956;PMS5003;55361;50.876;20.634;2024-01-15T15:10:08;25;22;13
50956;PMS5003;55361;50.876;20.634;2024-01-15T15:20:17;25;22;13
50956;PMS5003;55361;50.876;20.634;2024-01-15T15:30:02;25;22;13
50956;PMS5003;55361;50.876;20.634;2024-01-15T15:40:11;21;21;12
50956;PMS5003;55361;50.876;20.634;2024-01-15T15:50:12;21;21;12
50956;PMS5003;55361;50.876;20.634;2024-01-15T16:00:09;21;21;12
50956;PMS5003;55361;50.876;20.634;2024-01-15T16:10:12;24;24;16
50956;PMS5003;55361;50.876;20.634;2024-01-15T16:20:11;24;24;16
50956;PMS5003;55361;50.876;20.634;2024-01-15T16:30:02;24;24;16
50956;PMS5003;55361;50.876;20.634;2024-01-15T16:50:12;24;20;12
50956;PMS5003;55361;50.876;20.634;2024-01-15T17:00:16;24;20;12
50956;PMS5003;55361;50.876;20.634;2024-01-15T17:20:14;20;20;14
50956;PMS5003;55361;50.876;20.634;2024-01-15T17:30:09;20;20;14
50956;PMS5003;55361;50.876;20.634;2024-01-15T17:50:01;21;17;11
50956;PMS5003;55361;50.876;20.634;2024-01-15T18:00:16;21;17;11
50956;PMS5003;55361;50.876;20.634;2024-01-15T18:20:05;24;20;12
50956;PMS5003;55361;50.876;20.634;2024-01-15T18:30:18;24;20;12
50956;PMS5003;55361;50.876;20.634;2024-01-15T18:40:06;24;20;12
50956;PMS5003;55361;50.876;20.634;2024-01-15T18:50:09;23;19;11
50956;PMS5003;55361;50.876;20.634;2024-01-15T19:00:02;23;19;11
50956;PMS5003;55361;50.876;20.634;2024-01-15T19:10:13;23;19;11
50956;PMS5003;55361;50.876;20.634;2024-01-15T19:20:14;23;19;12
50956;PMS5003;55361;50.876;20.634;2024-01-15T19:30:13;23;19;12
50956;PMS5003;55361;50.876;20.634;2024-01-15T19:40:05;23;19;12
50956;PMS5003;55361;50.876;20.634;2024-01-15T19:50:06;16;16;12
50956;PMS5003;55361;50.876;20.634;2024-01-15T20:00:02;16;16;12
50956;PMS5003;55361;50.876;20.634;2024-01-15T20:10:02;16;16;12
50956;PMS5003;55361;50.876;20.634;2024-01-15T20:20:13;19;16;11
50956;PMS5003;55361;50.876;20.634;2024-01-15T20:30:06;19;16;11
50956;PMS5003;55361;50.876;20.634;2024-01-15T20:40:08;19;16;11
50956;PMS5003;55361;50.876;20.634;2024-01-15T20:50:15;19;16;9
50956;PMS5003;55361;50.876;20.634;2024-01-15T21:00:09;19;16;9
50956;PMS5003;55361;50.876;20.634;2024-01-15T21:10:14;19;16;9
50956;PMS5003;55361;50.876;20.634;2024-01-15T21:20:19;16;16;10
50956;PMS5003;55361;50.876;20.634;2024-01-15T21:30:15;16;16;10
50956;PMS5003;55361;50.876;20.634;2024-01-15T21:40:07;16;16;10
50956;PMS5003;55361;50.876;20.634;2024-01-15T21:50:02;18;14;10
50956;PMS5003;55361;50.876;20.634;2024-01-15T22:00:21;18;14;10
50956;PMS5003;55361;50.876;20.634;2024-01-15T22:10:18;18;14;10
50956;PMS5003;55361;50.876;20.634;2024-01-15T22:20:09;15;11;7
50956;PMS5003;55361;50.876;20.634;2024-01-15T22:30:11;15;11;7
50956;PMS5003;55361;50.876;20.634;2024-01-15T22:40:02;15;11;7
50956;PMS5003;55361;50.876;20.634;2024-01-15T22:50:13;13;10;6
50956;PMS5003;55361;50.876;20.634;2024-01-15T23:00:19;13;10;6
50956;PMS5003;55361;50.876;20.634;2024-01-15T23:10:08;12;12;8
50956;PMS5003;55361;50.876;20.634;2024-01-15T23:20:17;12;12;8
50956;PMS5003;55361;50.876;20.634;2024-01-15T23:30:10;12;12;8
50956;PMS5003;55361;50.876;20.634;2024-01-15T23:40:16;9;9;6
50956;PMS5003;55361;50.876;20.634;2024-01-15T23:50:11;9;9;6
